createdAt,value
2023-05-25T00:08:40.425Z,7.55
2023-05-25T00:18:43.232Z,7.21
2023-05-25T00:28:45.427Z,7.28
2023-05-25T00:38:47.845Z,7.27
2023-05-25T00:48:52.569Z,7.24
2023-05-25T00:58:56.979Z,6.76
2023-05-25T01:09:02.036Z,6.55
2023-05-25T01:19:04.721Z,6.40
2023-05-25T01:29:08.720Z,6.31
2023-05-25T01:39:11.241Z,5.80
2023-05-25T01:49:19.864Z,5.96
2023-05-25T01:59:22.116Z,6.37
2023-05-25T02:09:27.060Z,6.41
2023-05-25T02:19:29.586Z,5.67
2023-05-25T02:29:32.200Z,5.95
2023-05-25T02:39:36.043Z,5.70
2023-05-25T02:49:38.656Z,5.66
2023-05-25T02:59:42.030Z,5.63
2023-05-25T03:09:44.273Z,5.27
2023-05-25T03:19:46.932Z,5.38
2023-05-25T03:29:50.649Z,5.46
2023-05-25T03:39:52.945Z,5.38
2023-05-25T03:49:55.424Z,5.32
2023-05-25T03:59:57.708Z,5.34
2023-05-25T04:10:00.160Z,5.57
2023-05-25T04:20:03.753Z,5.70
2023-05-25T04:30:06.754Z,6.10
2023-05-25T04:40:38.048Z,6.40
2023-05-25T04:50:40.421Z,5.75
2023-05-25T05:00:44.295Z,6.01
2023-05-25T05:10:46.776Z,6.80
2023-05-25T05:20:49.156Z,7.02
2023-05-25T05:30:53.650Z,7.30
2023-05-25T05:40:56.126Z,7.30
2023-05-25T05:50:58.849Z,7.43
2023-05-25T06:01:02.189Z,7.68
2023-05-25T06:11:04.457Z,7.35
2023-05-25T06:21:06.708Z,7.57
2023-05-25T06:31:08.924Z,7.54
2023-05-25T06:41:14.962Z,7.92
2023-05-25T06:51:18.808Z,8.69
2023-05-25T07:01:21.267Z,8.30
2023-05-25T07:11:23.600Z,8.87
2023-05-25T07:21:25.770Z,9.04
2023-05-25T07:31:27.970Z,8.52
2023-05-25T07:41:30.208Z,9.04
2023-05-25T07:51:32.862Z,8.66
2023-05-25T08:01:36.062Z,9.51
2023-05-25T08:11:39.965Z,9.85
2023-05-25T08:21:42.355Z,9.39
2023-05-25T08:31:49.813Z,10.11
2023-05-25T08:41:52.170Z,9.85
2023-05-25T08:51:55.503Z,9.03
2023-05-25T09:02:22.860Z,9.77
2023-05-25T09:12:25.711Z,9.24
2023-05-25T09:22:28.252Z,9.75
2023-05-25T09:32:31.129Z,9.35
2023-05-25T09:42:37.409Z,9.55
2023-05-25T09:52:39.553Z,9.85
2023-05-25T10:02:41.711Z,9.52
2023-05-25T10:12:44.783Z,9.82
2023-05-25T10:23:05.731Z,9.75
2023-05-25T10:33:08.112Z,10.56
2023-05-25T10:43:10.507Z,10.82
2023-05-25T10:53:13.504Z,10.25
2023-05-25T11:03:15.714Z,10.90
2023-05-25T11:13:21.462Z,11.31
2023-05-25T11:23:24.053Z,11.81
2023-05-25T11:33:26.220Z,11.30
2023-05-25T11:43:29.600Z,10.61
2023-05-25T11:53:32.566Z,11.01
2023-05-25T12:03:36.564Z,11.11
2023-05-25T12:13:41.111Z,11.56
2023-05-25T12:23:43.434Z,12.09
2023-05-25T12:33:45.958Z,11.78
2023-05-25T12:43:49.340Z,12.38
2023-05-25T12:53:51.920Z,11.88
2023-05-25T13:03:54.186Z,11.80
2023-05-25T13:13:56.818Z,11.69
2023-05-25T13:23:59.017Z,11.98
2023-05-25T13:34:01.176Z,11.68
2023-05-25T13:44:03.714Z,12.94
2023-05-25T13:54:06.126Z,13.30
2023-05-25T14:04:10.036Z,13.76
2023-05-25T14:14:27.129Z,12.81
2023-05-25T14:24:33.335Z,13.54
2023-05-25T14:34:35.716Z,13.84
2023-05-25T14:44:37.941Z,13.14
2023-05-25T14:54:44.783Z,13.16
2023-05-25T15:04:47.723Z,12.82
2023-05-25T15:14:49.968Z,13.05
2023-05-25T15:24:52.086Z,13.21
2023-05-25T15:34:54.210Z,13.71
2023-05-25T15:44:56.616Z,12.23
2023-05-25T15:54:58.808Z,13.35
2023-05-25T16:05:00.985Z,13.96
2023-05-25T16:15:03.146Z,13.38
2023-05-25T16:25:05.694Z,12.91
2023-05-25T16:35:08.185Z,13.66
2023-05-25T16:45:10.739Z,13.41
2023-05-25T16:55:14.468Z,13.03
2023-05-25T17:05:16.712Z,13.37
2023-05-25T17:15:18.997Z,13.37
2023-05-25T17:25:21.580Z,13.45
2023-05-25T17:35:23.762Z,13.06
2023-05-25T17:45:26.109Z,13.18
2023-05-25T17:55:28.467Z,13.00
2023-05-25T18:05:30.646Z,13.45
2023-05-25T18:15:32.832Z,12.82
2023-05-25T18:25:34.951Z,12.73
2023-05-25T18:35:37.908Z,12.29
2023-05-25T18:45:40.056Z,11.94
2023-05-25T18:55:42.415Z,12.22
2023-05-25T19:05:44.781Z,11.33
2023-05-25T19:15:47.275Z,11.72
2023-05-25T19:25:49.579Z,11.28
2023-05-25T19:35:51.796Z,10.94
2023-05-25T19:45:55.274Z,10.99
2023-05-25T19:55:57.579Z,10.69
2023-05-25T20:05:59.681Z,10.56
2023-05-25T20:16:01.816Z,10.21
2023-05-25T20:26:04.005Z,10.30
2023-05-25T20:36:06.226Z,9.97
2023-05-25T20:46:08.805Z,10.35
2023-05-25T20:56:11.064Z,10.04
2023-05-25T21:06:13.210Z,9.55
2023-05-25T21:16:15.398Z,8.92
2023-05-25T21:26:17.592Z,10.01
2023-05-25T21:36:20.324Z,9.62
2023-05-25T21:46:22.426Z,9.05
2023-05-25T21:56:24.541Z,8.97
2023-05-25T22:06:26.645Z,8.54
2023-05-25T22:16:28.933Z,8.87
2023-05-25T22:26:31.076Z,8.49
2023-05-25T22:36:33.204Z,8.29
2023-05-25T22:46:35.829Z,8.66
2023-05-25T22:56:37.946Z,8.06
2023-05-25T23:06:40.043Z,8.15
2023-05-25T23:16:42.212Z,8.31
2023-05-25T23:26:44.329Z,7.71
2023-05-25T23:36:46.441Z,7.68
2023-05-25T23:46:48.524Z,7.92
2023-05-25T23:56:51.538Z,7.48
